createdAt,value
2018-03-31T00:00:03.827Z,35.70
2018-03-31T00:02:30.974Z,35.60
2018-03-31T00:04:58.140Z,35.60
2018-03-31T00:07:26.093Z,35.50
2018-03-31T00:09:53.245Z,35.50
2018-03-31T00:12:20.424Z,35.60
2018-03-31T00:14:47.567Z,35.60
2018-03-31T00:17:15.503Z,35.50
2018-03-31T00:19:42.687Z,35.40
2018-03-31T00:22:10.680Z,35.50
2018-03-31T00:24:37.918Z,35.40
2018-03-31T00:27:05.083Z,35.50
2018-03-31T00:29:32.236Z,35.50
2018-03-31T00:31:59.368Z,35.40
2018-03-31T00:34:26.648Z,35.40
2018-03-31T00:36:53.806Z,35.50
2018-03-31T00:39:20.962Z,35.50
2018-03-31T00:41:48.136Z,35.50
2018-03-31T00:44:16.067Z,35.50
2018-03-31T00:46:43.238Z,35.40
2018-03-31T00:49:10.392Z,35.50
2018-03-31T00:51:37.581Z,35.60
2018-03-31T00:54:04.749Z,35.60
2018-03-31T00:56:31.898Z,35.60
2018-03-31T00:58:59.055Z,35.60
2018-03-31T01:01:26.238Z,35.60
2018-03-31T01:03:53.398Z,35.60
2018-03-31T01:06:21.318Z,35.60
2018-03-31T01:08:48.477Z,35.60
2018-03-31T01:11:15.724Z,35.50
2018-03-31T01:13:42.972Z,35.50
2018-03-31T01:16:10.221Z,35.40
2018-03-31T01:18:37.464Z,35.40
2018-03-31T01:21:05.571Z,35.20
2018-03-31T01:23:33.604Z,35.10
2018-03-31T01:26:00.865Z,35.10
2018-03-31T01:28:28.131Z,35.10
2018-03-31T01:30:55.469Z,35.00
2018-03-31T01:33:22.740Z,35.10
2018-03-31T01:35:49.977Z,35.00
2018-03-31T01:38:17.235Z,35.00
2018-03-31T01:40:44.509Z,34.90
2018-03-31T01:43:12.539Z,34.80
2018-03-31T01:45:39.799Z,34.70
2018-03-31T01:48:07.050Z,34.60
2018-03-31T01:50:34.292Z,34.50
2018-03-31T01:53:01.564Z,34.30
2018-03-31T01:55:28.807Z,34.10
2018-03-31T01:57:56.062Z,34.00
2018-03-31T02:00:23.352Z,33.90
2018-03-31T02:02:50.603Z,33.90
2018-03-31T02:05:17.952Z,33.80
2018-03-31T02:07:45.975Z,33.40
2018-03-31T02:10:13.237Z,33.40
2018-03-31T02:12:40.575Z,33.30
2018-03-31T02:15:07.860Z,33.20
2018-03-31T02:17:35.903Z,32.70
2018-03-31T02:22:36.597Z,32.50
2018-03-31T02:25:03.850Z,32.50
2018-03-31T02:27:31.115Z,32.50
2018-03-31T02:29:58.360Z,32.50
2018-03-31T02:32:25.629Z,32.50
2018-03-31T02:34:52.871Z,32.40
2018-03-31T02:37:20.167Z,32.30
2018-03-31T02:39:47.461Z,32.20
2018-03-31T02:42:14.728Z,32.20
2018-03-31T02:44:42.017Z,32.20
2018-03-31T02:47:09.305Z,32.90
2018-03-31T02:49:36.494Z,32.90
2018-03-31T02:52:03.717Z,32.40
2018-03-31T02:54:30.961Z,32.60
2018-03-31T02:56:58.219Z,32.80
2018-03-31T02:59:25.504Z,33.00
2018-03-31T03:01:52.760Z,33.10
2018-03-31T03:04:19.925Z,33.10
2018-03-31T03:06:47.195Z,33.00
2018-03-31T03:09:15.225Z,32.50
2018-03-31T03:11:42.483Z,32.50
2018-03-31T03:14:09.676Z,32.40
2018-03-31T03:16:37.757Z,32.40
2018-03-31T03:19:05.747Z,32.30
2018-03-31T03:21:32.958Z,32.30
2018-03-31T03:24:00.106Z,32.30
2018-03-31T03:26:27.257Z,32.30
2018-03-31T03:28:54.479Z,32.10
2018-03-31T03:31:21.665Z,32.30
2018-03-31T03:33:49.583Z,32.30
2018-03-31T03:36:16.774Z,32.30
2018-03-31T03:38:44.743Z,32.30
2018-03-31T03:41:12.709Z,32.30
2018-03-31T03:43:40.643Z,32.30
2018-03-31T03:46:07.821Z,32.30
2018-03-31T03:48:34.976Z,32.20
2018-03-31T03:51:02.159Z,32.20
2018-03-31T03:53:29.325Z,32.20
2018-03-31T03:55:56.489Z,32.20
2018-03-31T03:58:23.659Z,32.20
2018-03-31T04:00:50.988Z,32.30
2018-03-31T04:03:18.158Z,32.30
2018-03-31T04:05:45.327Z,32.30
2018-03-31T04:08:13.286Z,32.30
2018-03-31T04:10:40.487Z,32.30
2018-03-31T04:13:07.628Z,32.30
2018-03-31T04:15:34.798Z,32.30
2018-03-31T04:18:02.050Z,32.30
2018-03-31T04:20:29.969Z,32.40
2018-03-31T04:22:57.922Z,32.50
2018-03-31T04:25:25.875Z,32.60
2018-03-31T04:27:53.114Z,32.50
2018-03-31T04:30:20.342Z,32.70
2018-03-31T04:32:47.606Z,32.70
2018-03-31T04:35:14.782Z,32.70
2018-03-31T04:37:41.949Z,32.70
2018-03-31T04:40:09.868Z,32.80
2018-03-31T04:42:37.040Z,32.80
2018-03-31T04:45:04.228Z,32.90
2018-03-31T04:47:32.139Z,33.00
2018-03-31T04:49:59.327Z,33.00
2018-03-31T04:52:26.540Z,33.00
2018-03-31T04:54:53.731Z,33.10
2018-03-31T04:57:21.682Z,33.10
2018-03-31T04:59:48.844Z,33.10
2018-03-31T05:02:16.790Z,33.20
2018-03-31T05:04:43.983Z,33.10
2018-03-31T05:07:11.183Z,33.20
2018-03-31T05:09:38.354Z,33.30
2018-03-31T05:12:06.316Z,33.40
2018-03-31T05:14:33.467Z,33.40
2018-03-31T05:17:00.623Z,33.50
2018-03-31T05:19:28.605Z,33.80
2018-03-31T05:21:55.754Z,33.70
2018-03-31T05:24:23.677Z,34.00
2018-03-31T05:26:50.861Z,33.90
2018-03-31T05:29:18.778Z,34.20
2018-03-31T05:31:46.019Z,34.00
2018-03-31T05:34:13.159Z,34.20
2018-03-31T05:36:40.359Z,34.20
2018-03-31T05:39:07.534Z,34.20
2018-03-31T05:41:35.468Z,34.40
2018-03-31T05:44:02.629Z,34.30
2018-03-31T05:46:29.787Z,34.40
2018-03-31T05:48:57.726Z,34.50
2018-03-31T05:51:24.871Z,34.50
2018-03-31T05:53:52.058Z,34.60
2018-03-31T05:56:20.011Z,34.60
2018-03-31T05:58:47.167Z,34.60
2018-03-31T06:01:15.106Z,34.60
2018-03-31T06:03:43.063Z,34.70
2018-03-31T06:06:10.243Z,34.70
2018-03-31T06:08:38.179Z,34.70
2018-03-31T06:11:05.373Z,34.70
2018-03-31T06:13:33.295Z,34.70
2018-03-31T06:16:00.457Z,34.70
2018-03-31T06:18:27.628Z,34.70
2018-03-31T06:20:55.661Z,34.80
2018-03-31T06:23:22.987Z,34.80
2018-03-31T06:25:50.365Z,34.80
2018-03-31T06:28:20.337Z,35.00
2018-03-31T06:30:50.073Z,35.00
2018-03-31T06:33:17.338Z,35.10
2018-03-31T06:35:45.685Z,35.30
2018-03-31T06:38:12.964Z,35.40
2018-03-31T06:40:40.262Z,35.50
2018-03-31T06:43:08.306Z,35.90
2018-03-31T06:45:35.581Z,35.80
2018-03-31T06:48:03.629Z,36.30
2018-03-31T06:50:30.884Z,36.30
2018-03-31T06:52:58.165Z,36.30
2018-03-31T06:55:25.427Z,36.50
2018-03-31T06:57:52.727Z,36.60
2018-03-31T07:00:20.008Z,36.70
2018-03-31T07:02:48.081Z,36.70
2018-03-31T07:05:16.114Z,36.80
2018-03-31T07:07:43.417Z,36.70
2018-03-31T07:10:10.712Z,36.80
2018-03-31T07:12:38.779Z,36.80
2018-03-31T07:15:06.061Z,36.80
2018-03-31T07:17:34.081Z,36.90
2018-03-31T07:20:01.356Z,36.80
2018-03-31T07:22:28.617Z,36.80
2018-03-31T07:24:55.956Z,36.80
2018-03-31T07:27:23.205Z,36.90
2018-03-31T07:29:50.467Z,36.90
2018-03-31T07:32:17.757Z,37.00
2018-03-31T07:34:45.800Z,37.30
2018-03-31T07:37:13.240Z,37.30
2018-03-31T07:39:40.522Z,37.40
2018-03-31T07:42:08.644Z,37.60
2018-03-31T07:44:35.991Z,37.40
2018-03-31T07:47:03.241Z,37.50
2018-03-31T07:49:30.521Z,37.50
2018-03-31T07:51:57.818Z,37.40
2018-03-31T07:54:25.092Z,37.30
2018-03-31T07:56:52.336Z,37.30
2018-03-31T07:59:19.615Z,37.10
2018-03-31T08:01:46.897Z,36.70
2018-03-31T08:04:14.957Z,36.30
2018-03-31T08:06:43.742Z,35.90
2018-03-31T08:09:11.009Z,35.90
2018-03-31T08:11:39.029Z,35.30
2018-03-31T08:14:06.327Z,35.30
2018-03-31T08:16:34.398Z,34.70
2018-03-31T08:19:02.473Z,34.40
2018-03-31T08:21:30.502Z,34.30
2018-03-31T08:23:57.776Z,34.30
2018-03-31T08:26:25.087Z,34.30
2018-03-31T08:28:52.341Z,34.50
2018-03-31T08:31:19.619Z,34.60
2018-03-31T08:33:46.867Z,34.70
2018-03-31T08:36:14.230Z,34.90
2018-03-31T08:38:41.512Z,35.20
2018-03-31T08:41:09.541Z,35.70
2018-03-31T08:43:36.875Z,35.60
2018-03-31T08:46:04.250Z,35.70
2018-03-31T08:48:31.517Z,35.70
2018-03-31T08:50:58.763Z,35.70
2018-03-31T08:53:26.021Z,35.70
2018-03-31T08:55:53.269Z,35.70
2018-03-31T08:58:20.534Z,35.70
2018-03-31T09:00:48.540Z,36.10
2018-03-31T09:03:15.781Z,35.40
2018-03-31T09:05:43.026Z,35.40
2018-03-31T09:08:10.294Z,35.40
2018-03-31T09:10:37.564Z,35.40
2018-03-31T09:13:04.888Z,35.40
2018-03-31T09:15:32.166Z,35.50
2018-03-31T09:17:59.492Z,35.60
2018-03-31T09:20:26.764Z,35.80
2018-03-31T09:22:54.023Z,36.20
2018-03-31T09:25:21.282Z,36.30
2018-03-31T09:27:48.542Z,36.20
2018-03-31T09:30:15.791Z,35.70
2018-03-31T09:32:43.057Z,35.20
2018-03-31T09:35:10.335Z,34.70
2018-03-31T09:37:38.358Z,33.70
2018-03-31T09:40:05.614Z,33.70
2018-03-31T09:42:32.879Z,33.30
2018-03-31T09:45:00.176Z,33.10
2018-03-31T09:47:27.454Z,33.00
2018-03-31T09:49:54.802Z,32.90
2018-03-31T09:52:22.067Z,32.90
2018-03-31T09:54:49.351Z,32.90
2018-03-31T09:57:17.405Z,33.10
2018-03-31T09:59:44.698Z,33.10
2018-03-31T10:02:11.989Z,33.10
2018-03-31T10:04:39.267Z,33.30
2018-03-31T10:07:06.600Z,33.50
2018-03-31T10:09:33.865Z,33.50
2018-03-31T10:12:01.143Z,33.30
2018-03-31T10:14:29.228Z,33.10
2018-03-31T10:16:56.577Z,33.10
2018-03-31T10:19:24.663Z,33.20
2018-03-31T10:21:51.931Z,33.10
2018-03-31T10:24:19.198Z,33.10
2018-03-31T10:26:46.375Z,32.90
2018-03-31T10:29:13.561Z,32.80
2018-03-31T10:31:40.750Z,32.70
2018-03-31T10:34:07.945Z,32.60
2018-03-31T10:36:35.901Z,32.60
2018-03-31T10:39:03.059Z,32.50
2018-03-31T10:41:30.991Z,32.90
2018-03-31T10:43:58.176Z,32.90
2018-03-31T10:46:26.107Z,33.40
2018-03-31T10:48:53.301Z,33.40
2018-03-31T10:51:21.267Z,33.30
2018-03-31T10:53:49.185Z,33.20
2018-03-31T10:56:16.363Z,33.20
2018-03-31T10:58:43.522Z,33.30
2018-03-31T11:01:10.727Z,33.10
2018-03-31T11:03:37.875Z,33.20
2018-03-31T11:06:05.073Z,33.20
2018-03-31T11:08:32.987Z,33.50
2018-03-31T11:11:00.209Z,33.40
2018-03-31T11:13:27.375Z,33.70
2018-03-31T11:15:54.522Z,34.00
2018-03-31T11:18:21.689Z,34.10
2018-03-31T11:20:49.608Z,34.30
2018-03-31T11:23:17.527Z,34.50
2018-03-31T11:25:44.699Z,34.30
2018-03-31T11:28:11.871Z,34.80
2018-03-31T11:30:39.809Z,34.80
2018-03-31T11:33:07.015Z,34.60
2018-03-31T11:35:34.175Z,34.50
2018-03-31T11:38:01.366Z,34.30
2018-03-31T11:40:28.509Z,34.20
2018-03-31T11:42:55.683Z,34.00
2018-03-31T11:45:23.650Z,34.10
2018-03-31T11:47:51.583Z,33.80
2018-03-31T11:50:18.749Z,33.70
2018-03-31T11:52:45.930Z,33.70
2018-03-31T11:55:13.868Z,33.50
2018-03-31T11:57:41.016Z,33.40
2018-03-31T12:00:08.189Z,33.30
2018-03-31T12:02:36.130Z,33.60
2018-03-31T12:05:03.308Z,33.50
2018-03-31T12:07:31.241Z,33.50
2018-03-31T12:09:58.428Z,33.40
2018-03-31T12:12:26.360Z,33.60
2018-03-31T12:14:53.528Z,33.60
2018-03-31T12:17:21.450Z,33.60
2018-03-31T12:19:48.641Z,33.60
2018-03-31T12:22:16.567Z,34.00
2018-03-31T12:24:43.731Z,34.00
2018-03-31T12:27:10.958Z,34.30
2018-03-31T12:29:38.133Z,34.20
2018-03-31T12:32:05.340Z,34.40
2018-03-31T12:34:32.516Z,34.30
2018-03-31T12:36:59.664Z,34.30
2018-03-31T12:39:26.829Z,34.50
2018-03-31T12:41:54.057Z,34.80
2018-03-31T12:44:21.219Z,35.00
2018-03-31T12:46:48.388Z,35.10
2018-03-31T12:49:15.569Z,35.30
2018-03-31T12:51:43.562Z,35.50
2018-03-31T12:54:10.752Z,35.50
2018-03-31T12:56:37.915Z,35.40
2018-03-31T12:59:05.071Z,34.90
2018-03-31T13:01:33.015Z,34.40
2018-03-31T13:04:00.330Z,34.30
2018-03-31T13:06:28.264Z,34.30
2018-03-31T13:08:56.216Z,34.40
2018-03-31T13:11:23.394Z,34.80
2018-03-31T13:13:50.625Z,34.70
2018-03-31T13:16:18.567Z,34.70
2018-03-31T13:18:45.722Z,34.70
2018-03-31T13:21:12.864Z,34.70
2018-03-31T13:23:40.058Z,34.60
2018-03-31T13:26:07.223Z,34.50
2018-03-31T13:28:34.379Z,34.50
2018-03-31T13:31:01.572Z,34.40
2018-03-31T13:33:28.739Z,34.20
2018-03-31T13:35:56.690Z,33.80
2018-03-31T13:38:23.835Z,33.80
2018-03-31T13:40:51.011Z,34.00
2018-03-31T13:43:18.157Z,34.20
2018-03-31T13:45:46.127Z,34.00
2018-03-31T13:48:14.085Z,34.00
2018-03-31T13:50:42.004Z,34.30
2018-03-31T13:53:09.163Z,34.30
2018-03-31T13:55:36.327Z,34.70
2018-03-31T13:58:03.483Z,35.90
2018-03-31T14:00:30.689Z,36.90
2018-03-31T14:02:57.884Z,37.10
2018-03-31T14:05:25.065Z,37.40
2018-03-31T14:07:52.234Z,38.50
2018-03-31T14:10:19.379Z,39.70
2018-03-31T14:12:46.520Z,40.30
2018-03-31T14:15:13.706Z,40.70
2018-03-31T14:17:40.871Z,40.90
2018-03-31T14:20:08.045Z,41.20
2018-03-31T14:22:35.959Z,40.80
2018-03-31T14:25:03.221Z,40.80
2018-03-31T14:27:30.395Z,40.50
2018-03-31T14:29:57.544Z,39.50
2018-03-31T14:32:24.714Z,40.10
2018-03-31T14:34:51.893Z,40.00
2018-03-31T14:37:19.646Z,39.60
2018-03-31T14:39:46.815Z,38.90
2018-03-31T14:42:13.999Z,39.10
2018-03-31T14:44:41.219Z,38.20
2018-03-31T14:47:08.468Z,37.20
2018-03-31T14:49:35.611Z,37.10
2018-03-31T14:52:02.787Z,36.70
2018-03-31T14:54:29.957Z,36.80
2018-03-31T14:56:57.872Z,37.10
2018-03-31T14:59:25.042Z,37.10
2018-03-31T15:01:52.233Z,37.00
2018-03-31T15:04:20.212Z,37.00
2018-03-31T15:06:47.359Z,36.90
2018-03-31T15:09:15.367Z,37.50
2018-03-31T15:11:42.533Z,37.40
2018-03-31T15:14:09.726Z,37.60
2018-03-31T15:16:37.844Z,37.70
2018-03-31T15:19:05.070Z,37.70
2018-03-31T15:21:32.400Z,37.80
2018-03-31T15:23:59.689Z,38.00
2018-03-31T15:26:26.954Z,38.30
2018-03-31T15:28:54.297Z,38.30
2018-03-31T15:31:21.676Z,37.80
2018-03-31T15:33:48.909Z,37.50
2018-03-31T15:36:16.166Z,37.80
2018-03-31T15:38:43.420Z,36.90
2018-03-31T15:41:10.686Z,36.90
2018-03-31T15:43:38.707Z,36.30
2018-03-31T15:46:05.949Z,36.30
2018-03-31T15:48:33.267Z,36.20
2018-03-31T15:51:01.273Z,36.30
2018-03-31T15:53:29.268Z,36.70
2018-03-31T15:55:56.580Z,36.70
2018-03-31T15:58:23.864Z,37.00
2018-03-31T16:00:51.107Z,36.90
2018-03-31T16:03:18.367Z,36.40
2018-03-31T16:05:45.636Z,36.30
2018-03-31T16:08:12.962Z,36.30
2018-03-31T16:10:40.977Z,36.20
2018-03-31T16:13:08.996Z,36.20
2018-03-31T16:15:36.228Z,36.20
2018-03-31T16:18:03.478Z,36.30
2018-03-31T16:20:30.717Z,36.40
2018-03-31T16:22:57.962Z,37.20
2018-03-31T16:25:25.271Z,36.80
2018-03-31T16:27:52.531Z,37.30
2018-03-31T16:30:19.773Z,38.00
2018-03-31T16:32:47.036Z,38.80
2018-03-31T16:35:14.265Z,40.00
2018-03-31T16:37:41.531Z,40.80
2018-03-31T16:40:08.819Z,41.00
2018-03-31T16:42:36.091Z,41.20
2018-03-31T16:45:03.376Z,41.10
2018-03-31T16:47:30.644Z,41.30
2018-03-31T16:49:57.919Z,41.70
2018-03-31T16:52:25.962Z,42.70
2018-03-31T16:54:53.205Z,42.70
2018-03-31T16:57:20.450Z,43.40
2018-03-31T16:59:47.744Z,43.80
2018-03-31T17:02:15.785Z,43.50
2018-03-31T17:04:43.051Z,43.50
2018-03-31T17:07:11.102Z,44.70
2018-03-31T17:09:38.349Z,44.70
2018-03-31T17:12:05.897Z,44.30
2018-03-31T17:14:33.161Z,44.60
2018-03-31T17:17:00.452Z,44.90
2018-03-31T17:19:27.738Z,44.50
2018-03-31T17:21:55.001Z,44.60
2018-03-31T17:24:22.291Z,44.20
2018-03-31T17:26:50.326Z,45.20
2018-03-31T17:29:17.573Z,45.00
2018-03-31T17:31:44.832Z,45.30
2018-03-31T17:34:12.091Z,45.60
2018-03-31T17:36:39.392Z,46.30
2018-03-31T17:39:06.662Z,46.60
2018-03-31T17:41:33.918Z,46.70
2018-03-31T17:44:01.952Z,47.40
2018-03-31T17:46:29.201Z,47.40
2018-03-31T17:48:57.284Z,47.40
2018-03-31T17:51:24.517Z,47.40
2018-03-31T17:53:52.545Z,47.50
2018-03-31T17:56:19.780Z,47.50
2018-03-31T17:58:47.059Z,47.50
2018-03-31T18:01:14.339Z,47.20
2018-03-31T18:03:42.363Z,47.00
2018-03-31T18:06:09.643Z,47.00
2018-03-31T18:08:37.700Z,46.90
2018-03-31T18:11:04.982Z,46.90
2018-03-31T18:13:33.009Z,47.20
2018-03-31T18:16:00.277Z,47.20
2018-03-31T18:18:27.576Z,47.20
2018-03-31T18:20:54.840Z,47.30
2018-03-31T18:23:22.089Z,47.40
2018-03-31T18:25:49.352Z,47.50
2018-03-31T18:28:16.596Z,47.30
2018-03-31T18:30:43.865Z,47.10
2018-03-31T18:33:11.169Z,47.00
2018-03-31T18:35:39.240Z,47.10
2018-03-31T18:38:07.248Z,47.30
2018-03-31T18:40:34.539Z,47.40
2018-03-31T18:43:02.549Z,47.50
2018-03-31T18:45:29.780Z,47.40
2018-03-31T18:47:57.820Z,47.40
2018-03-31T18:50:25.085Z,47.30
2018-03-31T18:52:53.122Z,47.00
2018-03-31T18:55:20.431Z,47.00
2018-03-31T18:57:47.672Z,46.80
2018-03-31T19:00:15.712Z,46.90
2018-03-31T19:02:42.928Z,46.90
2018-03-31T19:05:10.112Z,46.90
2018-03-31T19:07:37.272Z,46.90
2018-03-31T19:10:04.423Z,46.70
2018-03-31T19:12:31.588Z,46.60
2018-03-31T19:14:59.600Z,46.20
2018-03-31T19:17:26.757Z,46.10
2018-03-31T19:19:53.927Z,45.90
2018-03-31T19:22:21.108Z,45.80
2018-03-31T19:24:54.586Z,45.50
2018-03-31T19:27:21.739Z,45.50
2018-03-31T19:29:48.914Z,45.40
2018-03-31T19:32:16.850Z,45.20
2018-03-31T19:34:43.995Z,45.20
2018-03-31T19:37:11.208Z,45.00
2018-03-31T19:39:44.012Z,44.80
2018-03-31T19:42:11.584Z,44.60
2018-03-31T19:44:39.580Z,44.40
2018-03-31T19:47:07.547Z,44.40
2018-03-31T19:49:35.471Z,44.30
2018-03-31T19:52:02.640Z,44.30
2018-03-31T19:54:29.826Z,44.30
2018-03-31T19:56:57.021Z,44.30
2018-03-31T19:59:24.370Z,44.20
2018-03-31T20:01:51.563Z,44.20
2018-03-31T20:04:19.499Z,44.30
2018-03-31T20:06:46.642Z,44.30
2018-03-31T20:09:13.865Z,44.10
2018-03-31T20:11:41.055Z,43.80
2018-03-31T20:14:08.230Z,43.40
2018-03-31T20:16:36.143Z,42.70
2018-03-31T20:19:04.134Z,42.10
2018-03-31T20:21:31.322Z,42.10
2018-03-31T20:23:58.498Z,41.50
2018-03-31T20:26:25.679Z,41.00
2018-03-31T20:28:52.876Z,40.70
2018-03-31T20:31:20.050Z,40.60
2018-03-31T20:33:47.225Z,40.40
2018-03-31T20:36:14.398Z,40.20
2018-03-31T20:38:42.386Z,40.00
2018-03-31T20:41:10.393Z,40.10
2018-03-31T20:43:37.560Z,40.00
2018-03-31T20:46:04.740Z,40.30
2018-03-31T20:48:32.658Z,40.60
2018-03-31T20:50:59.854Z,40.60
2018-03-31T20:53:27.844Z,40.80
2018-03-31T20:55:54.994Z,40.80
2018-03-31T20:58:22.174Z,40.80
2018-03-31T21:00:49.349Z,40.70
2018-03-31T21:03:16.516Z,40.50
2018-03-31T21:05:44.441Z,40.50
2018-03-31T21:08:11.619Z,40.50
2018-03-31T21:10:38.779Z,40.60
2018-03-31T21:13:06.702Z,40.80
2018-03-31T21:15:33.857Z,40.80
2018-03-31T21:18:01.024Z,40.80
2018-03-31T21:20:28.200Z,40.60
2018-03-31T21:22:56.144Z,40.70
2018-03-31T21:25:23.318Z,40.70
2018-03-31T21:27:51.235Z,41.40
2018-03-31T21:30:18.413Z,40.70
2018-03-31T21:32:45.643Z,40.80
2018-03-31T21:35:12.815Z,40.90
2018-03-31T21:37:39.986Z,41.00
2018-03-31T21:40:07.912Z,41.10
2018-03-31T21:42:35.070Z,41.10
2018-03-31T21:45:02.234Z,41.10
2018-03-31T21:47:29.410Z,41.20
2018-03-31T21:49:56.622Z,41.30
2018-03-31T21:52:23.779Z,41.10
2018-03-31T21:54:50.976Z,40.90
2018-03-31T21:57:18.141Z,40.50
2018-03-31T21:59:45.321Z,40.00
2018-03-31T22:02:12.547Z,39.60
2018-03-31T22:04:39.699Z,39.50
2018-03-31T22:07:07.670Z,39.40
2018-03-31T22:09:34.835Z,39.30
2018-03-31T22:12:01.986Z,39.30
2018-03-31T22:14:34.874Z,39.10
2018-03-31T22:17:02.015Z,39.10
2018-03-31T22:19:29.178Z,39.00
2018-03-31T22:21:57.293Z,39.00
2018-03-31T22:24:24.441Z,39.00
2018-03-31T22:26:51.697Z,39.00
2018-03-31T22:29:18.992Z,39.00
2018-03-31T22:31:47.008Z,39.00
2018-03-31T22:34:14.282Z,38.90
2018-03-31T22:36:41.540Z,39.00
2018-03-31T22:39:08.822Z,39.00
2018-03-31T22:41:36.842Z,39.10
2018-03-31T22:44:04.136Z,39.10
2018-03-31T22:46:32.183Z,39.20
2018-03-31T22:49:00.225Z,39.30
2018-03-31T22:51:27.604Z,39.20
2018-03-31T22:53:54.923Z,39.30
2018-03-31T22:56:22.208Z,39.40
2018-03-31T22:58:49.471Z,39.50
2018-03-31T23:01:16.713Z,39.50
2018-03-31T23:03:43.992Z,39.50
2018-03-31T23:06:12.009Z,39.60
2018-03-31T23:08:39.264Z,39.60
2018-03-31T23:11:06.539Z,39.70
2018-03-31T23:13:33.793Z,39.80
2018-03-31T23:16:01.043Z,39.90
2018-03-31T23:18:28.295Z,39.90
2018-03-31T23:20:55.551Z,39.90
2018-03-31T23:23:22.782Z,39.90
2018-03-31T23:25:50.029Z,39.90
2018-03-31T23:28:17.289Z,39.90
2018-03-31T23:30:44.525Z,39.80
2018-03-31T23:33:11.889Z,39.70
2018-03-31T23:35:39.125Z,39.70
2018-03-31T23:38:06.400Z,39.80
2018-03-31T23:40:33.640Z,39.90
2018-03-31T23:43:00.872Z,40.00
2018-03-31T23:45:28.108Z,40.10
2018-03-31T23:47:55.455Z,40.00
2018-03-31T23:50:22.704Z,39.80
2018-03-31T23:52:49.991Z,39.70
2018-03-31T23:55:17.240Z,39.70
2018-03-31T23:57:44.508Z,39.70
